• Join FlightAware (Why Join?)
  • Login
  • US Flag 
03:37PM EST


 

Airport Tracker/Info


-or-


 

Live Flight TrackerFlight Track Log ✈ UAL6148 ✈ 26-Apr-2013 ✈ KLNK - KDEN

Flight Track Log - Related Links

Times and Time Zones

All times are in EDT time to prevent confusion due to time zone crossing. See the UAL6148 flight status page for this flight to view local times or setup timezone preferences in your user account.

Time Position Orientation Groundspeed Altitude Reporting Facility
EDT Latitude Longitude Course Direction KTS MPH feet Rate Location/Type
08:29PM 40.7758 -96.7908 213° Southwest 216 249 4,200  Level Minneapolis Center
08:30PM 40.7756 -96.8375 270° West 211 243 5,600 2,520 Climbing Minneapolis Center
08:31PM 40.7683 -96.9353 264° West 260 299 8,400 2,700 Climbing Minneapolis Center
08:32PM 40.7572 -97.0394 262° West 279 321 11,300 1,920 Climbing Minneapolis Center
08:33PM 40.7444 -97.1611 262° West 326 375 12,400 1,620 Climbing Minneapolis Center
08:34PM 40.7281 -97.3206 262° West 361 415 14,700 1,980 Climbing Minneapolis Center
08:35PM 40.7150 -97.4381 262° West 369 425 16,500 1,860 Climbing Minneapolis Center
08:36PM 40.6975 -97.6022 262° West 375 432 18,600 1,740 Climbing Minneapolis Center
08:37PM 40.6825 -97.7417 262° West 381 438 20,200 1,500 Climbing Minneapolis Center
08:38PM 40.6667 -97.8844 262° West 389 448 21,800 1,620 Climbing Minneapolis Center
08:39PM 40.6514 -98.0275 262° West 392 451 23,600 1,740 Climbing Minneapolis Center
08:40PM 40.6347 -98.1686 261° West 390 449 25,400 1,740 Climbing Minneapolis Center
08:41PM 40.6178 -98.3086 261° West 388 447 27,200 1,680 Climbing Minneapolis Center
08:42PM 40.6064 -98.4489 264° West 385 443 28,900 1,500 Climbing Minneapolis Center
08:43PM 40.6181 -98.5867 276° West 380 437 30,400 1,620 Climbing Minneapolis Center
08:44PM 40.6325 -98.7536 277° West 379 436 32,300 1,560 Climbing Minneapolis Center
08:45PM 40.6464 -98.8936 277° West 381 438 33,700 780 Climbing Minneapolis Center
08:46PM 40.6586 -99.0367 276° West 387 445 34,000 120 Climbing Minneapolis Center
08:47PM 40.6711 -99.1894 276° West 405 466 34,000  Level Minneapolis Center
08:48PM 40.6850 -99.3469 277° West 423 487 34,000  Level Minneapolis Center
08:49PM 40.6978 -99.5028 276° West 427 491 34,000  Level Minneapolis Center
08:50PM 40.7100 -99.6586 276° West 426 490 34,000  Level Minneapolis Center
08:51PM 40.7253 -99.8456 276° West 428 493 34,000  Level Minneapolis Center
08:52PM 40.7375 -100.0025 276° West 429 494 34,000  Level Minneapolis Center
08:53PM 40.7497 -100.1592 276° West 429 494 34,000  Level Minneapolis Center
08:55PM 40.7622 -100.3181 276° West 432 497 34,000  Level Minneapolis Center
08:56PM 40.7736 -100.4767 275° West 433 498 34,000  Level Minneapolis Center
08:57PM 40.7831 -100.6647 274° West 433 498 34,000  Level Denver Center
08:58PM 40.7594 -100.8203 259° West 434 499 34,100 480 Climbing Denver Center
08:59PM 40.7350 -100.9689 258° West 430 495 35,100 900 Climbing Denver Center
09:00PM 40.7067 -101.1358 257° West 419 482 36,000 420 Climbing Denver Center
09:01PM 40.6811 -101.2825 257° West 428 493 36,000  Level Denver Center
09:02PM 40.6536 -101.4358 257° West 447 514 36,000  Level Denver Center
09:03PM 40.6222 -101.6119 257° West 444 511 36,000  Level Denver Center
09:04PM 40.5956 -101.7628 257° West 443 510 36,000  Level Denver Center
09:05PM 40.5631 -101.9367 256° West 440 506 36,000  Level Denver Center
09:06PM 40.5356 -102.0881 257° West 443 510 36,000  Level Denver Center
09:07PM 40.5039 -102.2628 257° West 443 510 36,000  Level Denver Center
09:08PM 40.4761 -102.4147 257° West 447 514 36,000  Level Denver Center
09:09PM 40.4478 -102.5675 256° West 450 518 36,000  Level Denver Center
09:10PM 40.4158 -102.7331 256° West 450 518 36,000 -540 Level Denver Center
09:11PM 40.3858 -102.8950 256° West 453 521 34,900 -1,740 Descending Denver Center
09:12PM 40.3503 -103.0808 256° West 448 516 32,500 -1,980 Descending Denver Center
09:13PM 40.3194 -103.2425 256° West 453 521 30,900 -1,920 Descending Denver Center
09:14PM 40.2894 -103.4003 256° West 445 512 28,600 -2,220 Descending Denver Center
09:15PM 40.2592 -103.5503 255° West 424 488 26,400 -2,160 Descending Denver Center
09:16PM 40.2322 -103.6936 256° West 403 464 24,200 -2,160 Descending Denver Center
09:17PM 40.2022 -103.8447 255° West 408 470 22,000 -2,160 Descending Denver Center
09:18PM 40.1458 -103.9711 240° Southwest 392 451 19,800 -2,100 Descending Denver Center
09:19PM 40.0872 -104.0997 239° Southwest 377 434 17,700 -1,860 Descending Denver Center
09:20PM 40.0325 -104.2136 238° Southwest 372 428 16,000 -1,500 Descending Denver Center
09:21PM 39.9758 -104.3369 239° Southwest 369 425 14,600 -1,320 Descending Denver Center
09:22PM 39.9217 -104.4500 238° Southwest 371 427 13,300 -1,500 Descending Denver Center
09:23PM 39.8333 -104.5000 203° Southwest 311 358 11,500 -1,320 Descending Denver TRACON
09:24PM 39.7586 -104.5017 181° South 259 298 10,600 -1,140 Descending Denver Center
09:25PM 39.6900 -104.5036 181° South 244 281 9,300 -840 Descending Denver Center
09:26PM 39.6611 -104.5631 238° Southwest 223 257 8,900 -540 Descending Denver Center
09:28PM 39.6881 -104.6347 296° West 229 264 8,300 -960 Descending Denver Center
09:29PM 39.7433 -104.6608 340° North 209 241 7,000 -1,080 Descending Denver Center
09:30PM 39.7922 -104.6608 360° North 158 182 6,100 -780 Descending Denver Center
09:31PM 39.8331 -104.6606 360° North 149 171 5,400 -720 Descending Denver Center
09:33PM 39.8500 -104.6667 North  Level FlightAware Approximate
09:40PM 39.8617 -104.6732 North  Level Estimated
09:41PM 39.8617 -104.6732 North  Level Estimated